Weather observations for the past three days for
Graham, Graham Municipal Airport
Imperial (Metric)
Date Time (cdt) Wind (mph) Vis. (mi.) Weather Sky Cond. Temperature (ºF) Relative Humidity Wind Chill (°F) Heat Index (°F) Pressure Precipitation (in)
Air Dwpt 6 hour altimeter (in) sea level (mb) 1 hr 3 hr 6 hr
Max. Min.
08 05:15 S 5 10.00 Mostly Cloudy BKN049 BKN060 59.7 55.2 85% 29.94 0.0
08 04:55 Vrbl 3 10.00 Mostly Cloudy BKN046 59.9 55 84% 29.93 0.0
08 04:35 S 5 10.00 Mostly Cloudy BKN044 BKN060 59.5 54.3 83% 29.93 0.0
08 04:15 S 3 10.00 Partly Cloudy SCT045 SCT060 59.9 53.6 80% 29.94 0.0
08 03:55 Calm 10.00 Mostly Cloudy BKN047 BKN060 61 53.2 76% 29.94 0.0
08 03:35 Calm 10.00 Mostly Cloudy BKN047 BKN090 61.2 52.7 74% 29.93 0.0
08 03:15 Calm 10.00 Overcast OVC050 61.2 53.1 75% 29.94 0.0
08 02:55 Vrbl 3 10.00 Overcast OVC050 61.5 52.9 73% 29.94 0.0
08 02:35 Calm 10.00 Overcast OVC055 61.7 53.6 75% 29.95 0.0
08 02:15 Calm 10.00 Overcast OVC055 61.5 53.2 74% 29.96 0.0
08 01:55 Calm 10.00 Overcast OVC060 61.7 52.7 72% 29.96 0.0
08 01:35 SE 3 10.00 Overcast OVC060 61.7 52.5 72% 29.97 0.0
08 01:15 Vrbl 5 10.00 Overcast OVC060 61.2 52.3 73% 29.97 0.0
08 00:55 S 3 10.00 Overcast OVC065 59.7 52.9 70.3 57.4 78% 29.98 0.0
08 00:35 Calm 10.00 Mostly Cloudy BKN065 BKN140 58.5 52.3 80% 29.98 0.0
08 00:15 SE 3 10.00 Mostly Cloudy BKN140 57.7 52.3 82% 29.98 0.0
07 23:55 Calm 10.00 Mostly Cloudy BKN140 59.9 52.7 77% 29.98 0.0
07 23:35 Calm 10.00 Partly Cloudy SCT150 60.6 52.9 76% 29.98 0.0
07 23:15 Calm 10.00 Partly Cloudy SCT140 59.9 53.1 78% 29.98 0.0
07 22:55 Calm 10.00 Mostly Cloudy SCT120 BKN150 62.2 53.2 73% 29.98 0.0
07 22:15 Calm 10.00 Overcast BKN120 OVC150 62.4 52.9 71% 29.97 0.0
07 21:55 Calm 10.00 Mostly Cloudy BKN140 62.1 52.7 72% 29.96 0.0
07 21:35 Calm 10.00 Fair CLR 61.9 52.3 71% 29.95 0.0
07 21:15 Calm 10.00 Fair CLR 63 52.3 68% 29.95 0.0
07 20:55 SE 3 8.00 Fair CLR 64.6 52.2 64% 29.94 0.0
07 20:35 Vrbl 5 5.00 Fair with Haze CLR 66 51.6 60% 29.94 0.0
07 20:15 Vrbl 6 6.00 Fair with Haze CLR 67.3 51.6 57% 29.94 0.0
07 19:55 SE 5 8.00 Fair CLR 68.2 51.8 56% 29.94 0.0
07 19:35 SE 3 8.00 Fair CLR 68.5 51.4 55% 29.93 0.0
07 19:15 SE 3 6.00 Fair with Haze CLR 69.8 50.2 50% 29.94 0.0
07 18:55 Vrbl 6 6.00 Partly Cloudy with Haze SCT150 70.7 49.6 75.2 67.3 47% 29.95 0.0
07 18:35 Vrbl 6 7.00 Partly Cloudy SCT150 71.2 49.3 46% 29.95 0.0
07 18:15 SE 7 9.00 Fair CLR 71.8 50 46% 29.95 0.0
07 17:55 S 8 9.00 Fair CLR 73.4 50.2 44% 29.95 0.0
07 17:35 SE 7 10.00 Fair CLR 73.2 50.5 45% 29.96 0.0
07 17:15 Vrbl 7 10.00 Fair CLR 74.1 50.2 43% 29.96 0.0
07 16:55 SE 6 10.00 Fair CLR 74.8 49.5 41% 29.97 0.0
07 16:35 Vrbl 6 10.00 Fair CLR 74.3 48.6 40% 29.97 0.0
07 16:15 Vrbl 3 10.00 Fair CLR 74.7 49.5 41% 29.98 0.0
07 15:15 Calm 10.00 A Few Clouds FEW320 73 49.3 43% 29.99 0.0
07 14:55 Calm 10.00 Fair CLR 72.3 48 42% 30 0.0
07 14:35 NE 5 10.00 Fair CLR 71.6 47.8 43% 30.01 0.0
07 14:15 Calm 10.00 Fair CLR 71.8 48.4 44% 30.02 0.0
07 13:55 Vrbl 6 10.00 A Few Clouds FEW330 70 47.1 44% 30.03 0.0
07 13:35 Calm 10.00 A Few Clouds FEW370 68.9 46.8 45% 30.04 0.0
07 13:15 NE 10 10.00 Fair CLR 67.6 46.2 46% 30.05 0.0
07 12:55 NE 5 10.00 Fair CLR 66.9 46 66.9 44.4 47% 30.07 0.0
07 12:35 N 6 10.00 A Few Clouds FEW320 65.8 45 47% 30.08 0.0
07 12:15 Vrbl 3 10.00 Partly Cloudy FEW320 SCT340 65.5 44.6 47% 30.09 0.0
07 11:55 NE 6 10.00 A Few Clouds FEW350 65.8 45.7 48% 30.1 0.0
07 11:35 Vrbl 5 10.00 Fair CLR 64.6 46 51% 30.1 0.0
07 11:15 Vrbl 5 10.00 A Few Clouds FEW150 62.6 45.7 54% 30.11 0.0
07 10:55 Vrbl 3 10.00 Partly Cloudy SCT150 62.1 46.9 58% 30.11 0.0
07 10:35 Calm 10.00 A Few Clouds FEW320 62.1 48.2 61% 30.11 0.0
07 10:15 NE 6 10.00 A Few Clouds FEW150 60.6 48.9 66% 30.12 0.0
07 09:55 Calm 10.00 A Few Clouds FEW150 59 49.3 70% 30.13 0.0
07 09:35 Calm 10.00 A Few Clouds FEW310 57.4 50.4 78% 30.13 0.0
07 09:15 Vrbl 3 10.00 Fair CLR 55.9 51.3 84% 30.14 0.0
07 08:55 Vrbl 5 10.00 Fair CLR 52.9 50 90% 30.14 0.0
07 08:35 Calm 10.00 Fair CLR 51.3 48.7 91% 30.14 0.0
07 08:15 Calm 8.00 Fair CLR 49.8 48.2 94% 30.14 0.0
07 07:55 Calm 3.00 Fog/Mist CLR 47.8 46.9 97% 30.13 0.0
07 07:35 Calm 7.00 Fair CLR 46.8 46 97% 30.13 0.0
07 07:15 Calm 7.00 Fair CLR 45.3 44.6 97% 30.13 0.0
07 06:55 Calm 5.00 Fog/Mist CLR 45.3 44.2 52.2 45.3 96% 30.12 0.0
07 06:35 Calm 5.00 Fog/Mist CLR 46.2 45.1 96% 30.11 0.0
07 06:15 Calm 3.00 Fog/Mist CLR 46.2 45 95% 30.11 0.0
07 05:55 N 3 10.00 Fair CLR 47.1 45.9 95% 30.12 0.0
07 05:35 N 5 10.00 Fair CLR 46.9 45.9 96% 45 30.13 0.0
07 05:15 N 5 10.00 Fair CLR 47.1 45.7 95% 46 30.12 0.0
07 04:55 NW 3 10.00 Fair CLR 46.9 45.3 94% 30.11 0.0
07 04:35 Calm 10.00 Fair CLR 47.1 45.7 95% 30.1 0.0
07 04:15 Calm 10.00 Fair CLR 48.4 46.4 93% 30.09 0.0
07 03:55 N 3 10.00 Fair CLR 48.7 46.4 92% 30.08 0.0
07 03:35 N 3 10.00 Fair CLR 49.3 46.8 91% 30.08 0.0
07 03:15 N 3 10.00 Fair CLR 49.3 46.9 92% 30.08 0.0
07 02:55 N 3 10.00 Fair CLR 50.4 47.5 90% 30.06 0.0
07 02:35 N 5 10.00 Fair CLR 50.5 47.3 89% 30.07 0.0
07 02:15 Calm 10.00 Fair CLR 50.9 47.5 88% 30.06 0.0
07 01:55 NE 3 10.00 Fair CLR 51.6 48 88% 30.07 0.0
07 01:35 NE 3 10.00 Fair CLR 51.8 48 87% 30.06 0.0
07 01:15 NE 5 10.00 Fair CLR 52.2 48.4 87% 30.05 0.0
07 00:55 NE 5 10.00 Fair CLR 52.2 48 63.3 52 86% 30.04 0.0
07 00:35 NE 5 10.00 Fair CLR 52 47.8 86% 30.04 0.0
07 00:15 NE 5 10.00 Fair CLR 52.2 48.6 88% 30.04 0.0
06 23:55 NE 5 10.00 Fair CLR 53.2 49.1 86% 30.03 0.0
06 23:35 NE 3 10.00 Fair CLR 53.4 49.3 86% 30.04 0.0
06 23:15 E 5 10.00 Fair CLR 54 49.3 84% 30.03 0.0
06 22:55 E 5 10.00 Fair CLR 53.8 49.1 84% 30.03 0.0
06 22:35 E 3 10.00 Fair CLR 54 49.3 84% 30.02 0.0
06 22:15 NE 3 9.00 Fair CLR 53.1 49.3 87% 30.01 0.0
06 21:55 E 3 9.00 Light Rain CLR 54.7 49.5 83% 30.01 0.0
06 21:35 NE 3 9.00 Fair CLR 55.2 49.8 82% 30 0.0
06 21:15 E 5 10.00 Fair CLR 55.9 49.6 80% 29.99 0.0
06 20:55 E 3 9.00 Fair CLR 57.6 49.6 75% 29.99 0.0
06 20:35 E 3 8.00 Fair CLR 58.8 49.6 72% 29.98 0.0
06 20:15 NE 5 9.00 Fair CLR 60.4 49.3 67% 29.97 0.0
06 19:55 NE 7 10.00 Fair CLR 61.9 49.1 63% 29.97 0.0
06 19:35 NE 6 10.00 Fair CLR 62.1 49.5 64% 29.97 0.0
06 19:15 NE 6 10.00 Fair CLR 62.4 48.9 62% 29.96 0.0
06 18:55 Vrbl 5 10.00 Fair CLR 63.5 49.1 65.7 61 60% 29.96 0.0
06 18:35 NE 6 10.00 Fair CLR 62.1 48.4 61% 29.95 0.0
06 18:15 N 12 10.00 A Few Clouds FEW310 62.8 48.7 60% 29.94 0.0
06 17:55 NE 8 10.00 A Few Clouds FEW290 62.2 48.9 62% 29.94 0.0
06 17:35 N 12 10.00 A Few Clouds FEW290 62.1 48.4 61% 29.94 0.0
06 17:15 N 13 10.00 Fair CLR 62.2 48.2 60% 29.94 0.0
06 16:55 N 12 10.00 Fair CLR 63.7 48.9 59% 29.93 0.0
06 16:35 N 12 10.00 A Few Clouds FEW290 64.6 48.9 57% 29.93 0.0
06 16:15 N 9 10.00 Fair CLR 64.4 49.1 58% 29.93 0.0
06 15:55 N 10 10.00 A Few Clouds FEW280 65.5 49.6 57% 29.93 0.0
06 15:35 N 12 10.00 A Few Clouds FEW360 64.6 48.9 57% 29.94 0.0
06 15:15 N 10 10.00 A Few Clouds FEW330 64.9 49.5 57% 29.94 0.0
06 14:55 N 7 10.00 Partly Cloudy FEW270 SCT360 SCT380 64.8 49.6 58% 29.95 0.0
06 14:35 N 9 10.00 A Few Clouds FEW260 64 48.7 58% 29.94 0.0
06 14:15 N 8 10.00 A Few Clouds FEW280 62.6 48 59% 29.95 0.0
06 13:55 NW 8 10.00 Partly Cloudy FEW250 SCT280 SCT360 62.4 48.4 60% 29.96 0.0
06 13:35 Vrbl 6 10.00 A Few Clouds FEW280 63 48.6 60% 29.96 0.0
06 13:15 Vrbl 7 10.00 Partly Cloudy FEW280 SCT350 61.9 47.8 60% 29.96 0.0
06 12:55 N 9 10.00 A Few Clouds FEW280 61.5 47.5 61.5 50.7 60% 29.96 0.0
06 12:35 N 9 10.00 A Few Clouds FEW150 59.7 46.9 63% 29.98 0.0
06 12:15 N 8 10.00 Partly Cloudy FEW140 SCT240 SCT360 SCT380 58.5 45.9 63% 29.98 0.0
06 11:55 N 10 10.00 Partly Cloudy SCT035 SCT150 SCT240 57.9 45.5 63% 29.98 0.0
06 11:35 N 12 10.00 Mostly Cloudy SCT034 BKN150 BKN220 57.2 45 64% 29.98 0.0
06 11:15 N 10 10.00 Partly Cloudy FEW130 SCT160 SCT370 57.4 45 63% 29.97 0.0
06 10:55 NE 14 G 22 10.00 A Few Clouds FEW140 56.5 44.6 65% 29.95 0.0
06 10:35 N 16 G 22 10.00 Partly Cloudy SCT027 56.5 44.6 65% 29.94 0.0
06 10:15 NE 12 G 17 10.00 Overcast OVC026 54.5 43.9 68% 29.97 0.0
06 09:55 NE 7 10.00 Overcast OVC022 52.2 43.7 73% 30 0.0
06 09:35 NE 7 10.00 Overcast BKN021 OVC029 52 43.7 74% 30.01 0.0
06 09:15 N 8 10.00 Overcast FEW022 OVC028 52.2 44.1 74% 29.98 0.0
06 08:55 N 9 1.00 Overcast with Haze BKN019 OVC028 51.3 43.9 76% 29.96 0.0
06 08:15 N 9 0.75 Overcast with Haze OVC016 50.9 44.6 79% 29.97 0.0
06 07:55 N 8 0.75 Overcast with Haze OVC015 50.9 45.7 82% 29.94 0.0
06 07:35 N 10 1.00 Overcast with Haze OVC013 50.7 45.9 84% 29.93 0.0
06 07:15 N 10 1.00 Overcast with Haze OVC013 50.7 46 84% 29.92 0.0
06 06:55 N 12 1.00 Overcast with Haze OVC012 50.7 46.2 53.6 50.7 85% 29.92 0.0
06 06:35 N 13 2.00 Overcast with Haze OVC014 50.9 46.2 84% 29.92 0.0
06 06:15 N 9 1.75 Overcast with Haze OVC015 51.6 46.2 82% 29.93 0.0
06 05:55 N 14 2.00 Overcast with Haze OVC015 51.4 46.2 82% 29.9 0.0
06 05:35 N 9 1.75 Overcast with Haze OVC015 51.6 46.2 82% 29.89 0.0
06 05:15 N 10 1.75 Overcast with Haze OVC016 51.8 45.9 80% 29.89 0.0
06 04:55 N 10 1.75 Overcast with Haze OVC018 51.8 45.3 79% 29.89 0.0
06 04:35 N 13 1.75 Overcast with Haze OVC017 52 45.5 79% 29.88 0.0
06 04:15 N 10 1.50 Overcast with Haze OVC016 52.2 45.9 79% 29.87 0.0
06 03:55 N 10 1.50 Overcast with Haze OVC017 52.3 46.6 81% 29.86 0.0
06 03:35 N 8 1.25 Mostly Cloudy with Haze BKN018 52.2 47.3 84% 29.86 0.0
06 03:15 N 6 1.25 Fair with Haze CLR 51.4 47.5 86% 29.86 0.0
06 02:55 N 7 1.50 Mostly Cloudy with Haze BKN031 52.2 47.1 83% 29.85 0.0
06 02:35 N 7 1.50 Overcast with Haze FEW019 OVC032 52.5 47.1 82% 29.86 0.0
06 02:15 N 7 1.50 Mostly Cloudy with Haze BKN020 52.9 47.7 83% 29.86 0.0
06 01:55 N 12 2.00 Mostly Cloudy with Haze BKN018 BKN035 53.4 48 82% 29.86 0.0
06 00:55 N 6 1.50 Fair with Haze CLR 53.2 48.4 70.9 53.2 84% 29.83 0.0
06 00:35 NE 5 1.75 Fair with Haze CLR 53.6 48.2 82% 29.82 0.0
06 00:15 NE 6 1.75 Fair with Haze CLR 53.8 48 81% 29.82 0.0
05 23:55 NE 6 2.00 Fair with Haze CLR 54.5 48.4 80% 29.83 0.0
05 23:35 NE 8 2.00 Light Rain CLR 54.9 48.7 80% 29.84 0.0
05 23:15 N 7 2.00 Fair with Haze CLR 55.2 49.3 81% 29.83 0.0
05 22:55 N 8 2.50 Fair with Haze CLR 55.6 49.3 80% 29.84 0.0
05 22:35 N 9 3.00 Fair with Haze CLR 56.1 49.6 79% 29.83 0.0
05 22:15 NE 8 2.50 Fair with Haze CLR 56.5 49.8 79% 29.82 0.0
05 21:55 N 8 3.00 Fair with Haze CLR 57.6 51.1 79% 29.81 0.0
05 21:35 N 13 4.00 Fair with Haze CLR 58.3 51.4 78% 29.8 0.0
05 21:15 N 14 5.00 A Few Clouds with Haze FEW260 59.2 51.4 76% 29.78 0.0
05 20:55 N 13 6.00 A Few Clouds with Haze FEW240 61 52.3 73% 29.77 0.0
05 20:35 N 16 G 22 6.00 Fair with Haze CLR 62.2 52.9 72% 29.75 0.0
05 20:15 N 17 9.00 Fair CLR 64.9 54 68% 29.73 0.0
05 19:55 N 10 10.00 A Few Clouds FEW210 68 54.1 61% 29.72 0.0
05 19:35 N 9 10.00 Fair CLR 69.6 54 58% 29.72 0.0
05 19:15 N 12 10.00 Fair CLR 70.3 53.1 54% 29.71 0.0
05 18:55 N 13 10.00 A Few Clouds FEW230 70.5 52.7 86.7 70.5 53% 29.71 0.0
05 18:35 N 16 10.00 Mostly Cloudy BKN230 71.1 53.2 53% 29.71 0.0
05 18:15 N 17 10.00 Mostly Cloudy BKN220 72.5 53.8 52% 29.71 0.0
05 17:55 N 15 G 21 10.00 Mostly Cloudy SCT200 BKN230 74.3 54.9 51% 29.69 0.0
05 17:35 N 14 10.00 Overcast BKN200 OVC230 73.8 55.2 52% 29.69 0.0
05 17:15 N 14 10.00 Mostly Cloudy SCT210 BKN230 74.8 55.9 52% 29.69 0.0
05 16:55 N 18 G 24 10.00 Mostly Cloudy BKN200 76.5 56.5 50% 78 29.69 0.0
05 16:35 N 13 10.00 Mostly Cloudy FEW170 BKN210 77.4 57.7 51% 79 29.69 0.0
05 16:15 N 13 10.00 Mostly Cloudy SCT170 BKN370 78.3 59 52% 80 29.68 0.0
05 15:55 N 14 10.00 Partly Cloudy SCT160 77.9 58.6 52% 79 29.68 0.0
05 15:35 N 16 10.00 A Few Clouds FEW160 79.7 59.5 50% 81 29.69 0.0
05 15:15 N 15 10.00 Fair CLR 80.2 60.6 51% 81 29.69 0.0
05 14:55 N 16 G 20 10.00 Partly Cloudy FEW220 SCT370 81.5 61.2 50% 82 29.69 0.0
05 14:35 NW 13 10.00 A Few Clouds FEW220 83.8 58.3 42% 83 29.68 0.0
05 14:15 NW 14 10.00 Partly Cloudy FEW150 SCT320 SCT360 82.9 58.1 43% 83 29.69 0.0
05 13:55 NW 14 10.00 Mostly Cloudy FEW150 SCT240 SCT270 BKN320 82.4 51.6 34% 81 29.69 0.0
05 13:35 NW 18 10.00 Mostly Cloudy FEW250 SCT280 SCT300 BKN330 83.3 48.6 30% 81 29.68 0.0
05 13:15 W 13 10.00 Mostly Cloudy SCT150 BKN280 BKN330 86.2 58.1 39% 85 29.68 0.0
05 12:55 W 13 10.00 Mostly Cloudy BKN150 84.6 57.4 84.7 70 40% 84 29.68 0.0
05 12:35 W 10 10.00 Mostly Cloudy BKN160 84.6 61.3 46% 85 29.67 0.0
05 12:15 SW 7 10.00 Mostly Cloudy BKN150 82.8 65.3 56% 85 29.67 0.0
05 11:55 SW 8 10.00 Mostly Cloudy BKN150 BKN220 81.1 65.8 60% 83 29.67 0.0
05 11:35 SW 10 10.00 Mostly Cloudy BKN150 BKN220 80.4 66 62% 83 29.67 0.0
05 11:15 SW 9 10.00 Mostly Cloudy SCT160 SCT190 BKN220 79.5 66 63% 82 29.66 0.0
05 10:55 SW 10 10.00 Mostly Cloudy FEW150 SCT180 BKN210 78.6 65.5 64% 81 29.66 0.0
05 10:35 SW 6 10.00 Overcast FEW190 OVC210 78.1 66 67% 80 29.65 0.0
05 10:15 SW 7 10.00 Mostly Cloudy BKN210 77.9 65.3 65% 80 29.65 0.0
05 09:55 SW 9 10.00 Fair CLR 76.3 64.9 68% 78 29.65 0.0
05 09:35 SW 12 10.00 Fair CLR 75.6 64.6 69% 77 29.65 0.0
05 09:15 SW 10 G 17 10.00 A Few Clouds FEW210 74.8 64.9 71% 29.64 0.0
05 08:55 S 8 10.00 A Few Clouds FEW220 72.9 64.8 76% 29.64 0.0
05 08:35 Vrbl 5 10.00 Partly Cloudy SCT220 71.6 64.8 79% 29.64 0.0
05 08:15 Vrbl 7 10.00 Mostly Cloudy BKN220 71.2 64.2 79% 29.64 0.0
05 07:55 Vrbl 5 10.00 Partly Cloudy SCT230 70.2 63.7 80% 29.62 0.0
05 07:35 S 7 9.00 Mostly Cloudy BKN230 70 63.5 80% 29.61 0.0
05 07:15 S 6 10.00 Mostly Cloudy BKN230 70.2 63.3 79% 29.61 0.0
05 06:55 S 8 10.00 Mostly Cloudy BKN240 70.2 63.3 74.7 70.2 79% 29.61 0.0
05 06:35 S 8 10.00 Mostly Cloudy BKN240 70.2 63.3 79% 29.61 0.0
05 06:15 Vrbl 7 10.00 Overcast OVC240 70.5 63.3 78% 29.6 0.0
05 05:55 S 10 G 18 10.00 Mostly Cloudy BKN240 70.7 63.5 78% 29.6 0.0
05 05:35 S 9 10.00 Partly Cloudy SCT240 70.7 63.5 78% 29.6 0.0
Date Time (cdt) Wind (mph) Vis. (mi.) Weather Sky Cond. Air Dwpt Max. Min. Relative Humidity Wind Chill (°F) Heat Index (°F) altimeter (in) sea level (mb) 1 hr 3 hr 6 hr
6 hour
Temperature (ºF) Pressure Precipitation (in)